KLM83R EHAM-EDDM
Flight info
| Callsign | KLM83R |
|---|---|
| Flight time | 1h 2m |
| Altitude | 35000 |
| Route | EDUPO Z739 MISGO DCT DOJOH DCT DODEN DCT TABUM DCT BOMBI T104 ELMOX/N0412F270 T104 ROKIL ROKIL1B |
| Aircraft | B739/M-SDE2E3FGIJ1RWYZ/LB1 |
Departure
| Time | 2026-05-06 20:59 |
|---|---|
| Airport | Amsterdam Airport Schiphol (EHAM) |
Arrival
| Time | 2026-05-06 22:01 |
|---|---|
| Airport | Munich Airport (EDDM) |
| Time | Latitude | Longitude | Altitude | Speed | Heading |
|---|---|---|---|---|---|
| 2026-05-06 20:36 | 52.30545 | 4.76804 | -2 ft | 0 kts | 294° |
| 2026-05-06 20:51 | 52.30537 | 4.76833 | -2 ft | 4 kts | 294° |
| 2026-05-06 20:51 | 52.30529 | 4.76864 | -2 ft | 4 kts | 291° |
| 2026-05-06 20:51 | 52.30519 | 4.76902 | -2 ft | 4 kts | 271° |
| 2026-05-06 20:52 | 52.30524 | 4.76918 | -2 ft | 4 kts | 177° |
| 2026-05-06 20:52 | 52.30550 | 4.76913 | -2 ft | 4 kts | 172° |
| 2026-05-06 20:52 | 52.30566 | 4.76909 | -2 ft | 0 kts | 172° |
| 2026-05-06 20:54 | 52.30565 | 4.76909 | -2 ft | 1 kts | 172° |
| 2026-05-06 20:54 | 52.30533 | 4.76935 | -2 ft | 11 kts | 143° |
| 2026-05-06 20:54 | 52.30440 | 4.76899 | -2 ft | 21 kts | 233° |
| 2026-05-06 20:55 | 52.30346 | 4.76657 | -2 ft | 29 kts | 238° |
| 2026-05-06 20:55 | 52.30240 | 4.76385 | -2 ft | 28 kts | 237° |
| 2026-05-06 20:55 | 52.30140 | 4.76122 | -2 ft | 26 kts | 239° |
| 2026-05-06 20:55 | 52.30048 | 4.75878 | -2 ft | 24 kts | 238° |
| 2026-05-06 20:56 | 52.29961 | 4.75652 | -2 ft | 23 kts | 238° |
| 2026-05-06 20:56 | 52.29878 | 4.75435 | -2 ft | 22 kts | 238° |
| 2026-05-06 20:56 | 52.29848 | 4.75203 | -2 ft | 22 kts | 290° |
| 2026-05-06 20:56 | 52.29939 | 4.75013 | -2 ft | 21 kts | 311° |
| 2026-05-06 20:57 | 52.30045 | 4.74814 | -1 ft | 27 kts | 312° |
| 2026-05-06 20:57 | 52.30172 | 4.74584 | 11 ft | 26 kts | 312° |
| 2026-05-06 20:57 | 52.30289 | 4.74366 | 9 ft | 25 kts | 311° |
| 2026-05-06 20:57 | 52.30409 | 4.74122 | -2 ft | 27 kts | 293° |
| 2026-05-06 20:58 | 52.30403 | 4.73834 | -3 ft | 24 kts | 279° |
| 2026-05-06 20:58 | 52.30540 | 4.73769 | -4 ft | 24 kts | 4° |
| 2026-05-06 20:58 | 52.30927 | 4.73804 | -2 ft | 95 kts | 3° |
| 2026-05-06 20:58 | 52.31819 | 4.73879 | 19 ft | 157 kts | 2° |
| 2026-05-06 20:59 | 52.32950 | 4.73932 | 632 ft | 164 kts | 2° |
| 2026-05-06 20:59 | 52.34051 | 4.74287 | 1486 ft | 162 kts | 23° |
| 2026-05-06 20:59 | 52.35109 | 4.75069 | 2150 ft | 176 kts | 24° |
| 2026-05-06 20:59 | 52.36329 | 4.75923 | 2466 ft | 205 kts | 24° |
| 2026-05-06 21:00 | 52.37690 | 4.76897 | 2829 ft | 228 kts | 29° |
| 2026-05-06 21:00 | 52.38778 | 4.78851 | 3396 ft | 243 kts | 65° |
| 2026-05-06 21:00 | 52.39008 | 4.81607 | 4369 ft | 252 kts | 94° |
| 2026-05-06 21:00 | 52.38427 | 4.84348 | 5349 ft | 261 kts | 115° |
| 2026-05-06 21:01 | 52.37439 | 4.86891 | 6303 ft | 268 kts | 121° |
| 2026-05-06 21:01 | 52.36349 | 4.89401 | 7229 ft | 273 kts | 123° |
| 2026-05-06 21:01 | 52.35228 | 4.91939 | 8102 ft | 278 kts | 123° |
| 2026-05-06 21:01 | 52.34088 | 4.94526 | 8979 ft | 283 kts | 123° |
| 2026-05-06 21:02 | 52.32934 | 4.97163 | 9830 ft | 288 kts | 123° |
| 2026-05-06 21:02 | 52.31758 | 4.99872 | 10479 ft | 302 kts | 123° |
| 2026-05-06 21:02 | 52.30490 | 5.02811 | 10681 ft | 330 kts | 124° |
| 2026-05-06 21:02 | 52.29135 | 5.05959 | 11214 ft | 343 kts | 124° |
| 2026-05-06 21:03 | 52.27771 | 5.09132 | 11948 ft | 349 kts | 124° |
| 2026-05-06 21:03 | 52.26364 | 5.12405 | 12747 ft | 353 kts | 124° |
| 2026-05-06 21:03 | 52.24944 | 5.15710 | 13526 ft | 357 kts | 124° |
| 2026-05-06 21:03 | 52.23509 | 5.19050 | 14288 ft | 362 kts | 124° |
| 2026-05-06 21:04 | 52.22059 | 5.22424 | 15057 ft | 365 kts | 125° |
| 2026-05-06 21:04 | 52.20594 | 5.25826 | 15785 ft | 368 kts | 125° |
| 2026-05-06 21:04 | 52.19109 | 5.29272 | 16494 ft | 372 kts | 125° |
| 2026-05-06 21:04 | 52.17613 | 5.32740 | 17192 ft | 376 kts | 126° |
| 2026-05-06 21:05 | 52.16101 | 5.36239 | 17848 ft | 380 kts | 126° |
| 2026-05-06 21:05 | 52.14572 | 5.39777 | 18509 ft | 384 kts | 126° |
| 2026-05-06 21:05 | 52.13030 | 5.43337 | 19170 ft | 387 kts | 126° |
| 2026-05-06 21:05 | 52.11473 | 5.46930 | 19820 ft | 390 kts | 126° |
| 2026-05-06 21:06 | 52.09902 | 5.50550 | 20431 ft | 393 kts | 126° |
| 2026-05-06 21:06 | 52.08314 | 5.54202 | 21021 ft | 397 kts | 126° |
| 2026-05-06 21:06 | 52.06707 | 5.57893 | 21640 ft | 400 kts | 126° |
| 2026-05-06 21:06 | 52.05094 | 5.61594 | 22235 ft | 403 kts | 126° |
| 2026-05-06 21:07 | 52.03463 | 5.65328 | 22797 ft | 406 kts | 127° |
| 2026-05-06 21:07 | 52.01841 | 5.69039 | 23344 ft | 410 kts | 127° |
| 2026-05-06 21:07 | 52.00184 | 5.72822 | 23871 ft | 413 kts | 127° |
| 2026-05-06 21:07 | 51.98510 | 5.76640 | 24410 ft | 416 kts | 127° |
| 2026-05-06 21:08 | 51.96831 | 5.80463 | 24954 ft | 418 kts | 127° |
| 2026-05-06 21:08 | 51.95135 | 5.84321 | 25433 ft | 422 kts | 127° |
| 2026-05-06 21:08 | 51.93422 | 5.88208 | 25885 ft | 426 kts | 127° |
| 2026-05-06 21:08 | 51.91694 | 5.92124 | 26375 ft | 428 kts | 127° |
| 2026-05-06 21:09 | 51.89956 | 5.96058 | 26841 ft | 430 kts | 127° |
| 2026-05-06 21:09 | 51.88208 | 6.00013 | 27289 ft | 433 kts | 127° |
| 2026-05-06 21:09 | 51.86450 | 6.03981 | 27729 ft | 435 kts | 127° |
| 2026-05-06 21:09 | 51.84625 | 6.07904 | 28160 ft | 437 kts | 131° |
| 2026-05-06 21:10 | 51.82621 | 6.11612 | 28574 ft | 439 kts | 134° |
| 2026-05-06 21:10 | 51.80550 | 6.15251 | 28994 ft | 441 kts | 134° |
| 2026-05-06 21:10 | 51.78476 | 6.18941 | 29399 ft | 443 kts | 134° |
| 2026-05-06 21:10 | 51.76421 | 6.22662 | 29792 ft | 445 kts | 133° |
| 2026-05-06 21:11 | 51.74364 | 6.26420 | 30245 ft | 445 kts | 133° |
| 2026-05-06 21:11 | 51.72346 | 6.30114 | 30800 ft | 442 kts | 133° |
| 2026-05-06 21:11 | 51.70318 | 6.33822 | 31302 ft | 440 kts | 133° |
| 2026-05-06 21:11 | 51.68293 | 6.37516 | 31741 ft | 440 kts | 133° |
| 2026-05-06 21:12 | 51.66258 | 6.41219 | 32165 ft | 439 kts | 133° |
| 2026-05-06 21:12 | 51.64228 | 6.44905 | 32614 ft | 438 kts | 133° |
| 2026-05-06 21:12 | 51.62207 | 6.48567 | 33035 ft | 437 kts | 133° |
| 2026-05-06 21:12 | 51.60184 | 6.52224 | 33418 ft | 437 kts | 133° |
| 2026-05-06 21:13 | 51.58195 | 6.55819 | 33793 ft | 436 kts | 133° |
| 2026-05-06 21:13 | 51.56179 | 6.59458 | 34157 ft | 435 kts | 134° |
| 2026-05-06 21:13 | 51.54163 | 6.63092 | 34486 ft | 435 kts | 134° |
| 2026-05-06 21:13 | 51.52149 | 6.66720 | 34803 ft | 435 kts | 134° |
| 2026-05-06 21:14 | 51.50125 | 6.70357 | 34931 ft | 440 kts | 134° |
| 2026-05-06 21:14 | 51.46025 | 6.77713 | 34932 ft | 442 kts | 134° |
| 2026-05-06 21:15 | 51.41947 | 6.85014 | 34923 ft | 436 kts | 134° |
| 2026-05-06 21:15 | 51.37793 | 6.92026 | 34949 ft | 432 kts | 138° |
| 2026-05-06 21:16 | 51.33485 | 6.98638 | 34933 ft | 432 kts | 139° |
| 2026-05-06 21:16 | 51.29136 | 7.05263 | 34944 ft | 431 kts | 139° |
| 2026-05-06 21:17 | 51.24809 | 7.11906 | 34939 ft | 431 kts | 139° |
| 2026-05-06 21:17 | 51.20489 | 7.18554 | 34933 ft | 432 kts | 139° |
| 2026-05-06 21:18 | 51.16152 | 7.25217 | 34921 ft | 433 kts | 139° |
| 2026-05-06 21:18 | 51.11811 | 7.31867 | 34916 ft | 433 kts | 139° |
| 2026-05-06 21:19 | 51.07458 | 7.38516 | 34919 ft | 433 kts | 139° |
| 2026-05-06 21:19 | 51.03101 | 7.45155 | 34909 ft | 434 kts | 139° |
| 2026-05-06 21:20 | 50.98741 | 7.51779 | 34905 ft | 434 kts | 139° |
| 2026-05-06 21:20 | 50.94406 | 7.58349 | 34905 ft | 433 kts | 139° |
| 2026-05-06 21:21 | 50.90042 | 7.64944 | 34900 ft | 433 kts | 139° |
| 2026-05-06 21:21 | 50.85678 | 7.71522 | 34890 ft | 433 kts | 139° |
| 2026-05-06 21:22 | 50.81309 | 7.78071 | 34880 ft | 432 kts | 139° |
| 2026-05-06 21:22 | 50.76924 | 7.84582 | 34868 ft | 432 kts | 140° |
| 2026-05-06 21:23 | 50.72545 | 7.91073 | 34861 ft | 431 kts | 140° |
| 2026-05-06 21:23 | 50.68180 | 7.97531 | 34863 ft | 430 kts | 140° |
| 2026-05-06 21:24 | 50.63814 | 8.03981 | 34859 ft | 429 kts | 140° |
| 2026-05-06 21:24 | 50.59386 | 8.10241 | 34852 ft | 425 kts | 148° |
| 2026-05-06 21:25 | 50.54433 | 8.15239 | 34859 ft | 422 kts | 151° |
| 2026-05-06 21:25 | 50.49496 | 8.20111 | 34858 ft | 421 kts | 150° |
| 2026-05-06 21:26 | 50.44515 | 8.25087 | 34860 ft | 421 kts | 150° |
| 2026-05-06 21:26 | 50.39614 | 8.29999 | 34860 ft | 420 kts | 150° |
| 2026-05-06 21:27 | 50.34684 | 8.34931 | 34871 ft | 420 kts | 150° |
| 2026-05-06 21:27 | 50.29768 | 8.39919 | 34864 ft | 422 kts | 146° |
| 2026-05-06 21:28 | 50.25528 | 8.46341 | 34874 ft | 427 kts | 136° |
| 2026-05-06 21:28 | 50.21543 | 8.53238 | 34879 ft | 427 kts | 136° |
| 2026-05-06 21:29 | 50.17528 | 8.60095 | 34867 ft | 428 kts | 136° |
| 2026-05-06 21:29 | 50.13480 | 8.66931 | 34860 ft | 429 kts | 136° |
| 2026-05-06 21:30 | 50.09418 | 8.73760 | 34859 ft | 429 kts | 136° |
| 2026-05-06 21:30 | 50.05370 | 8.80510 | 34860 ft | 428 kts | 139° |
| 2026-05-06 21:31 | 50.00996 | 8.86820 | 34868 ft | 426 kts | 142° |
| 2026-05-06 21:31 | 49.96603 | 8.92908 | 34861 ft | 426 kts | 142° |
| 2026-05-06 21:32 | 49.92198 | 8.99046 | 34860 ft | 425 kts | 142° |
| 2026-05-06 21:32 | 49.86360 | 9.07227 | 34864 ft | 424 kts | 142° |
| 2026-05-06 21:33 | 49.81984 | 9.13353 | 34862 ft | 423 kts | 142° |
| 2026-05-06 21:33 | 49.77617 | 9.19444 | 34875 ft | 422 kts | 142° |
| 2026-05-06 21:34 | 49.73243 | 9.25535 | 34868 ft | 422 kts | 142° |
| 2026-05-06 21:34 | 49.68902 | 9.31565 | 34865 ft | 421 kts | 142° |
| 2026-05-06 21:35 | 49.64540 | 9.37612 | 34871 ft | 420 kts | 143° |
| 2026-05-06 21:35 | 49.60288 | 9.43829 | 34861 ft | 423 kts | 137° |
| 2026-05-06 21:36 | 49.56427 | 9.50698 | 34860 ft | 424 kts | 135° |
| 2026-05-06 21:36 | 49.52615 | 9.57561 | 34864 ft | 424 kts | 136° |
| 2026-05-06 21:37 | 49.48730 | 9.64431 | 34862 ft | 425 kts | 136° |
| 2026-05-06 21:37 | 49.44830 | 9.71266 | 34866 ft | 425 kts | 136° |
| 2026-05-06 21:38 | 49.40948 | 9.78053 | 34861 ft | 425 kts | 136° |
| 2026-05-06 21:38 | 49.37033 | 9.84866 | 34862 ft | 425 kts | 136° |
| 2026-05-06 21:39 | 49.33092 | 9.91623 | 34856 ft | 425 kts | 137° |
| 2026-05-06 21:39 | 49.29142 | 9.98370 | 34864 ft | 425 kts | 137° |
| 2026-05-06 21:40 | 49.25190 | 10.05118 | 34864 ft | 425 kts | 137° |
| 2026-05-06 21:40 | 49.23208 | 10.08498 | 34685 ft | 429 kts | 137° |
| 2026-05-06 21:40 | 49.21196 | 10.11920 | 34077 ft | 434 kts | 137° |
| 2026-05-06 21:41 | 49.19202 | 10.15316 | 33354 ft | 434 kts | 137° |
| 2026-05-06 21:41 | 49.17205 | 10.18763 | 32587 ft | 434 kts | 137° |
| 2026-05-06 21:41 | 49.15208 | 10.22220 | 31798 ft | 434 kts | 137° |
| 2026-05-06 21:41 | 49.13204 | 10.25658 | 30972 ft | 433 kts | 137° |
| 2026-05-06 21:42 | 49.11145 | 10.29009 | 30338 ft | 428 kts | 139° |
| 2026-05-06 21:42 | 49.09096 | 10.32274 | 29732 ft | 423 kts | 139° |
| 2026-05-06 21:42 | 49.07067 | 10.35494 | 29140 ft | 418 kts | 139° |
| 2026-05-06 21:42 | 49.05068 | 10.38685 | 28551 ft | 414 kts | 138° |
| 2026-05-06 21:43 | 49.03098 | 10.41849 | 27965 ft | 409 kts | 138° |
| 2026-05-06 21:43 | 49.01152 | 10.44974 | 27390 ft | 404 kts | 138° |
| 2026-05-06 21:43 | 48.99220 | 10.48048 | 26821 ft | 399 kts | 139° |
| 2026-05-06 21:43 | 48.97315 | 10.51033 | 26264 ft | 394 kts | 139° |
| 2026-05-06 21:44 | 48.95411 | 10.54008 | 25707 ft | 390 kts | 139° |
| 2026-05-06 21:44 | 48.93533 | 10.56961 | 25160 ft | 386 kts | 138° |
| 2026-05-06 21:44 | 48.91689 | 10.59906 | 24624 ft | 382 kts | 138° |
| 2026-05-06 21:44 | 48.89894 | 10.62878 | 24123 ft | 380 kts | 132° |
| 2026-05-06 21:45 | 48.88471 | 10.66232 | 23899 ft | 376 kts | 122° |
| 2026-05-06 21:45 | 48.87289 | 10.69794 | 23660 ft | 380 kts | 121° |
| 2026-05-06 21:45 | 48.86099 | 10.73427 | 23319 ft | 386 kts | 121° |
| 2026-05-06 21:45 | 48.84924 | 10.77020 | 22820 ft | 382 kts | 121° |
| 2026-05-06 21:46 | 48.83743 | 10.80624 | 22285 ft | 379 kts | 121° |
| 2026-05-06 21:46 | 48.82567 | 10.84189 | 21751 ft | 376 kts | 121° |
| 2026-05-06 21:46 | 48.81394 | 10.87726 | 21227 ft | 374 kts | 121° |
| 2026-05-06 21:46 | 48.80227 | 10.91230 | 20697 ft | 371 kts | 121° |
| 2026-05-06 21:47 | 48.79064 | 10.94712 | 20186 ft | 368 kts | 121° |
| 2026-05-06 21:47 | 48.77906 | 10.98169 | 19666 ft | 366 kts | 121° |
| 2026-05-06 21:47 | 48.76753 | 11.01607 | 19148 ft | 364 kts | 121° |
| 2026-05-06 21:47 | 48.75607 | 11.05019 | 18635 ft | 363 kts | 121° |
| 2026-05-06 21:48 | 48.74463 | 11.08421 | 18123 ft | 361 kts | 121° |
| 2026-05-06 21:48 | 48.73327 | 11.11798 | 17607 ft | 359 kts | 121° |
| 2026-05-06 21:48 | 48.72195 | 11.15155 | 17096 ft | 357 kts | 121° |
| 2026-05-06 21:48 | 48.71064 | 11.18504 | 16578 ft | 355 kts | 121° |
| 2026-05-06 21:49 | 48.69941 | 11.21827 | 16070 ft | 354 kts | 121° |
| 2026-05-06 21:49 | 48.68835 | 11.25094 | 15568 ft | 352 kts | 121° |
| 2026-05-06 21:49 | 48.67721 | 11.28382 | 15060 ft | 351 kts | 121° |
| 2026-05-06 21:49 | 48.66610 | 11.31657 | 14559 ft | 349 kts | 121° |
| 2026-05-06 21:50 | 48.65505 | 11.34910 | 14052 ft | 347 kts | 121° |
| 2026-05-06 21:50 | 48.64400 | 11.38156 | 13556 ft | 345 kts | 121° |
| 2026-05-06 21:50 | 48.63302 | 11.41377 | 13062 ft | 343 kts | 121° |
| 2026-05-06 21:50 | 48.62211 | 11.44582 | 12573 ft | 342 kts | 121° |
| 2026-05-06 21:51 | 48.61122 | 11.47770 | 12096 ft | 340 kts | 121° |
| 2026-05-06 21:51 | 48.60042 | 11.50938 | 11608 ft | 338 kts | 121° |
| 2026-05-06 21:51 | 48.58965 | 11.54087 | 11131 ft | 336 kts | 121° |
| 2026-05-06 21:51 | 48.57893 | 11.57218 | 10651 ft | 334 kts | 120° |
| 2026-05-06 21:52 | 48.56839 | 11.60347 | 10227 ft | 332 kts | 116° |
| 2026-05-06 21:52 | 48.56021 | 11.63505 | 10177 ft | 322 kts | 111° |
| 2026-05-06 21:52 | 48.55316 | 11.66669 | 10026 ft | 312 kts | 110° |
| 2026-05-06 21:52 | 48.54652 | 11.69734 | 9874 ft | 302 kts | 110° |
| 2026-05-06 21:53 | 48.53992 | 11.72734 | 9525 ft | 302 kts | 110° |
| 2026-05-06 21:53 | 48.53323 | 11.75733 | 9174 ft | 301 kts | 109° |
| 2026-05-06 21:53 | 48.52650 | 11.78711 | 8808 ft | 300 kts | 109° |
| 2026-05-06 21:53 | 48.51972 | 11.81683 | 8444 ft | 299 kts | 109° |
| 2026-05-06 21:54 | 48.51289 | 11.84640 | 8078 ft | 298 kts | 109° |
| 2026-05-06 21:54 | 48.50607 | 11.87599 | 7716 ft | 300 kts | 110° |
| 2026-05-06 21:54 | 48.49927 | 11.90560 | 7334 ft | 298 kts | 109° |
| 2026-05-06 21:54 | 48.49247 | 11.93501 | 6964 ft | 297 kts | 110° |
| 2026-05-06 21:55 | 48.48559 | 11.96447 | 6609 ft | 297 kts | 110° |
| 2026-05-06 21:55 | 48.47886 | 11.99337 | 6255 ft | 296 kts | 110° |
| 2026-05-06 21:55 | 48.47196 | 12.02307 | 5900 ft | 296 kts | 110° |
| 2026-05-06 21:55 | 48.46520 | 12.05196 | 5558 ft | 295 kts | 112° |
| 2026-05-06 21:56 | 48.45455 | 12.07692 | 5495 ft | 275 kts | 144° |
| 2026-05-06 21:56 | 48.43852 | 12.08846 | 5404 ft | 247 kts | 174° |
| 2026-05-06 21:56 | 48.42218 | 12.08943 | 5300 ft | 225 kts | 193° |
| 2026-05-06 21:56 | 48.40783 | 12.08353 | 5189 ft | 204 kts | 211° |
| 2026-05-06 21:57 | 48.39645 | 12.07260 | 4940 ft | 191 kts | 226° |
| 2026-05-06 21:57 | 48.38757 | 12.05758 | 4529 ft | 189 kts | 246° |
| 2026-05-06 21:57 | 48.38476 | 12.03914 | 4308 ft | 176 kts | 265° |
| 2026-05-06 21:57 | 48.38296 | 12.02116 | 4067 ft | 172 kts | 262° |
| 2026-05-06 21:58 | 48.38120 | 12.00340 | 3834 ft | 172 kts | 263° |
| 2026-05-06 21:58 | 48.37967 | 11.98534 | 3606 ft | 176 kts | 263° |
| 2026-05-06 21:58 | 48.37822 | 11.96700 | 3367 ft | 176 kts | 263° |
| 2026-05-06 21:58 | 48.37682 | 11.94918 | 3134 ft | 165 kts | 263° |
| 2026-05-06 21:59 | 48.37554 | 11.93271 | 2921 ft | 155 kts | 262° |
| 2026-05-06 21:59 | 48.37432 | 11.91703 | 2752 ft | 152 kts | 262° |
| 2026-05-06 21:59 | 48.37312 | 11.90147 | 2542 ft | 150 kts | 262° |
| 2026-05-06 21:59 | 48.37199 | 11.88607 | 2357 ft | 148 kts | 263° |
| 2026-05-06 22:00 | 48.37077 | 11.87069 | 2177 ft | 148 kts | 261° |
| 2026-05-06 22:00 | 48.36946 | 11.85539 | 1977 ft | 147 kts | 261° |
| 2026-05-06 22:00 | 48.36828 | 11.84024 | 1795 ft | 145 kts | 263° |
| 2026-05-06 22:00 | 48.36718 | 11.82515 | 1617 ft | 145 kts | 263° |
| 2026-05-06 22:01 | 48.36603 | 11.81028 | 1482 ft | 136 kts | 263° |
| 2026-05-06 22:01 | 48.36515 | 11.79872 | 1470 ft | 92 kts | 264° |
| 2026-05-06 22:01 | 48.36456 | 11.79142 | 1484 ft | 48 kts | 258° |
| 2026-05-06 22:01 | 48.36343 | 11.78790 | 1484 ft | 28 kts | 234° |
| 2026-05-06 22:02 | 48.36230 | 11.78567 | 1484 ft | 26 kts | 233° |
| 2026-05-06 22:02 | 48.36134 | 11.78350 | 1484 ft | 24 kts | 250° |
| 2026-05-06 22:02 | 48.36109 | 11.78114 | 1484 ft | 23 kts | 262° |
| 2026-05-06 22:02 | 48.36090 | 11.77879 | 1482 ft | 22 kts | 263° |
| 2026-05-06 22:03 | 48.36041 | 11.77676 | 1484 ft | 22 kts | 205° |
| 2026-05-06 22:03 | 48.35895 | 11.77688 | 1485 ft | 21 kts | 173° |
| 2026-05-06 22:03 | 48.35781 | 11.77782 | 1477 ft | 20 kts | 95° |
| 2026-05-06 22:03 | 48.35889 | 11.77850 | 1485 ft | 20 kts | 355° |
| 2026-05-06 22:04 | 48.35970 | 11.77733 | 1484 ft | 19 kts | 252° |
| 2026-05-06 22:04 | 48.35853 | 11.77695 | 1485 ft | 18 kts | 173° |
| 2026-05-06 22:04 | 48.35732 | 11.77749 | 1481 ft | 18 kts | 165° |
| 2026-05-06 22:04 | 48.35611 | 11.77773 | 1481 ft | 17 kts | 173° |
| 2026-05-06 22:05 | 48.35494 | 11.77795 | 1484 ft | 17 kts | 173° |
| 2026-05-06 22:05 | 48.35381 | 11.77819 | 1484 ft | 16 kts | 156° |
| 2026-05-06 22:05 | 48.35366 | 11.77974 | 1478 ft | 16 kts | 85° |
| 2026-05-06 22:05 | 48.35376 | 11.78132 | 1484 ft | 15 kts | 96° |
| 2026-05-06 22:06 | 48.35299 | 11.78204 | 1477 ft | 14 kts | 172° |
| 2026-05-06 22:06 | 48.35203 | 11.78222 | 1481 ft | 14 kts | 174° |
| 2026-05-06 22:06 | 48.35115 | 11.78238 | 1484 ft | 11 kts | 173° |
| 2026-05-06 22:06 | 48.35085 | 11.78300 | 1484 ft | 7 kts | 85° |
| 2026-05-06 22:07 | 48.35088 | 11.78344 | 1484 ft | 2 kts | 83° |
| 2026-05-06 22:07 | 48.35089 | 11.78347 | 1484 ft | 0 kts | 83° |